Terminal Aerodrome Forecast
Issued by NWS

Home | Current Version | Previous Version | Graphics & Text | Print | Product List | Glossary On
Versions: 1 2 3 4 5 6 7 8 9 10 11 12 13 14 15 16 17 18 19 20 21 22 23 24 25 26 27 28
293
FTUS43 KLOT 220312 AAA
TAFORD
TAF AMD
KORD 220312Z 2203/2306 15005KT P6SM SCT100 OVC150
     FM220800 21010KT P6SM FEW100 BKN250
     FM221400 22014G23KT P6SM SCT040 BKN200=

USA.gov is the U.S. government's official web portal to all federal, state and local government web resources and services.